Time;durP1;ratioP1;P1;durP2;ratioP2;P2;SDS_P1;SDS_P2;PMS_P1;PMS_P2;Temp;Humidity;BMP_temperature;BMP_pressure;BME280_temperature;BME280_humidity;BME280_pressure;Samples;Min_cycle;Max_cycle;Signal;HPM_P1;HPM_P2
2022/10/19 00:01:15;;;;;;;9.35;4.25;;;;;;;8.38;57.84;100386.06;1596948;89;21623;-81
2022/10/19 00:03:45;;;;;;;7.12;4.20;;;;;;;8.39;58.05;100382.48;1597863;86;21045;-81
2022/10/19 00:06:25;;;;;;;9.93;4.47;;;;;;;8.43;58.23;100378.70;1571367;90;21045;-81
2022/10/19 00:08:57;;;;;;;10.13;4.03;;;;;;;8.48;58.44;100371.30;1583869;88;21527;-81
2022/10/19 00:11:23;;;;;;;8.25;4.12;;;;;;;8.56;58.50;100372.92;1648536;86;21033;-81
2022/10/19 00:13:52;;;;;;;8.43;4.65;;;;;;;8.61;58.55;100367.34;1649044;86;21496;-82
2022/10/19 00:16:21;;;;;;;11.60;4.03;;;;;;;8.66;58.67;100363.05;1629789;86;21076;-81
2022/10/19 00:18:49;;;;;;;6.78;4.28;;;;;;;8.71;58.70;100362.27;1643791;85;20986;-81
2022/10/19 00:21:17;;;;;;;9.90;4.08;;;;;;;8.76;58.74;100354.38;1649035;86;20981;-82
2022/10/19 00:23:44;;;;;;;6.08;4.08;;;;;;;8.82;58.74;100350.47;1628400;87;21016;-81
2022/10/19 00:26:11;;;;;;;7.65;4.17;;;;;;;8.86;58.68;100347.49;1649144;85;22534;-81
2022/10/19 00:28:37;;;;;;;7.67;3.92;;;;;;;8.89;58.69;100343.81;1648906;86;20910;-81
2022/10/19 00:31:10;;;;;;;11.97;4.37;;;;;;;8.91;58.67;100339.75;1649313;86;21049;-82
2022/10/19 00:33:37;;;;;;;;;;;;;;;8.92;58.58;100338.31;1632302;86;20989;-81
2022/10/19 00:36:04;;;;;;;7.67;4.12;;;;;;;8.94;58.57;100328.98;1595639;89;20135;-81
2022/10/19 00:38:31;;;;;;;7.10;4.05;;;;;;;8.92;58.61;100315.09;1623234;88;21846;-81
2022/10/19 00:40:57;;;;;;;8.43;4.40;;;;;;;8.89;58.67;100314.36;1619682;88;21045;-81
2022/10/19 00:43:26;;;;;;;9.33;4.35;;;;;;;8.88;58.78;100306.10;1619000;88;21041;-81
2022/10/19 00:45:53;;;;;;;13.18;4.45;;;;;;;8.89;58.82;100304.31;1618437;87;21045;-81
2022/10/19 00:48:27;;;;;;;12.07;4.33;;;;;;;8.87;58.85;100295.17;1619195;88;21507;-81
2022/10/19 00:50:55;;;;;;;9.63;4.33;;;;;;;8.86;59.00;100293.98;1605957;88;21874;-81
2022/10/19 00:53:23;;;;;;;9.78;4.17;;;;;;;8.82;59.10;100292.05;1597015;89;21047;-81
2022/10/19 00:55:50;;;;;;;10.18;4.20;;;;;;;8.81;59.20;100287.74;1602302;88;21452;-81
2022/10/19 00:58:17;;;;;;;7.97;4.25;;;;;;;8.81;59.20;100286.91;1618468;87;21030;-80
2022/10/19 01:00:43;;;;;;;8.80;4.42;;;;;;;8.78;59.32;100285.80;1619296;87;21064;-80
2022/10/19 01:03:10;;;;;;;9.55;4.22;;;;;;;8.73;59.39;100268.19;1599242;88;22374;-80
2022/10/19 01:05:37;;;;;;;8.03;4.33;;;;;;;8.71;59.52;100265.67;1619370;88;21035;-80
2022/10/19 01:08:05;;;;;;;10.08;4.53;;;;;;;8.69;59.62;100262.80;1604366;88;21114;-80
2022/10/19 01:11:15;;;;;;;8.80;4.30;;;;;;;8.66;59.67;100265.62;1596870;89;21066;-81
2022/10/19 01:14:23;;;;;;;11.85;5.17;;;;;;;8.64;59.78;100259.64;1596872;89;21108;-82
2022/10/19 01:17:10;;;;;;;11.57;4.75;;;;;;;8.58;59.89;100256.49;1597066;89;21936;-81
2022/10/19 01:19:58;;;;;;;10.38;4.70;;;;;;;8.54;60.08;100253.73;1597109;89;21053;-81
2022/10/19 01:22:56;;;;;;;12.20;5.00;;;;;;;8.51;60.18;100248.70;1611519;88;21484;-81
2022/10/19 01:25:54;;;;;;;8.18;4.42;;;;;;;8.46;60.27;100253.92;1601401;87;21071;-80
2022/10/19 01:28:52;;;;;;;11.33;4.90;;;;;;;8.40;60.34;100244.70;1596872;89;21078;-80
2022/10/19 01:31:36;;;;;;;10.75;4.60;;;;;;;8.31;60.48;100242.22;1597133;89;21836;-80
2022/10/19 01:34:27;;;;;;;9.30;4.55;;;;;;;8.26;60.59;100237.75;1603861;88;21477;-80
2022/10/19 01:37:35;;;;;;;10.43;4.70;;;;;;;8.20;60.81;100235.58;1622532;88;21055;-80
2022/10/19 01:40:31;;;;;;;9.35;4.80;;;;;;;8.15;61.01;100223.69;1620945;88;21094;-81
2022/10/19 01:43:13;;;;;;;13.40;5.03;;;;;;;8.11;61.21;100219.61;1596841;89;21007;-81
2022/10/19 01:45:49;;;;;;;10.97;4.83;;;;;;;8.07;61.41;100214.19;1596616;89;21094;-81
2022/10/19 01:48:22;;;;;;;8.63;4.58;;;;;;;8.03;61.59;100213.58;1596914;89;21031;-81
2022/10/19 01:50:59;;;;;;;8.65;4.50;;;;;;;7.99;61.79;100206.36;1598301;89;21394;-81
2022/10/19 01:53:28;;;;;;;10.10;4.95;;;;;;;7.99;61.96;100204.20;1597090;89;21031;-80
2022/10/19 01:55:55;;;;;;;13.38;4.87;;;;;;;7.99;62.07;100197.15;1596199;89;21119;-81
2022/10/19 01:58:27;;;;;;;8.43;4.70;;;;;;;7.98;62.17;100195.95;1606526;88;21955;-81
2022/10/19 02:00:55;;;;;;;8.45;4.80;;;;;;;7.96;62.26;100189.48;1622583;88;21055;-81
2022/10/19 02:03:23;;;;;;;8.25;5.10;;;;;;;7.94;62.42;100186.14;1622162;87;21059;-81
2022/10/19 02:05:52;;;;;;;9.18;5.03;;;;;;;7.91;62.50;100180.23;1618257;86;21515;-81
2022/10/19 02:08:28;;;;;;;10.65;5.37;;;;;;;7.90;62.64;100181.19;1617382;86;21825;-81
2022/10/19 02:10:57;;;;;;;8.73;4.95;;;;;;;7.87;62.72;100181.42;1619515;88;21966;-82
2022/10/19 02:13:25;;;;;;;8.73;5.33;;;;;;;7.84;62.85;100183.80;1619211;88;21433;-81
2022/10/19 02:15:54;;;;;;;11.00;5.85;;;;;;;7.85;62.97;100184.64;1606338;86;21074;-81
2022/10/19 02:18:32;;;;;;;12.43;4.92;;;;;;;7.83;63.09;100179.49;1619114;88;21057;-81
2022/10/19 02:21:02;;;;;;;9.68;5.22;;;;;;;7.83;63.24;100176.02;1624083;88;21089;-81
2022/10/19 02:23:29;;;;;;;11.53;4.67;;;;;;;7.84;63.35;100175.91;1630980;87;21968;-81
2022/10/19 02:25:55;;;;;;;10.63;5.62;;;;;;;7.84;63.42;100170.66;1631133;88;20969;-81
2022/10/19 02:28:24;;;;;;;7.12;4.80;;;;;;;7.84;63.55;100162.77;1630824;87;21032;-81
2022/10/19 02:30:50;;;;;;;8.25;5.25;;;;;;;7.83;63.68;100153.20;1631073;88;21112;-81
2022/10/19 02:33:16;;;;;;;9.30;4.67;;;;;;;7.84;63.76;100162.77;1615546;87;21010;-81
2022/10/19 02:35:43;;;;;;;9.05;5.15;;;;;;;7.85;63.90;100168.86;1635418;87;21822;-81
2022/10/19 02:38:11;;;;;;;8.98;5.00;;;;;;;7.85;64.03;100164.44;1635528;87;21010;-80
2022/10/19 02:40:42;;;;;;;8.18;4.78;;;;;;;7.87;64.17;100160.38;1656662;86;20991;-81
2022/10/19 02:43:13;;;;;;;9.70;4.80;;;;;;;7.87;64.25;100157.27;1665950;85;21441;-80
2022/10/19 02:45:47;;;;;;;7.75;4.50;;;;;;;7.88;64.31;100154.17;1680628;85;21494;-80
2022/10/19 02:48:22;;;;;;;9.38;5.08;;;;;;;7.86;64.45;100151.66;1680419;85;21462;-81
2022/10/19 02:50:50;;;;;;;7.53;5.15;;;;;;;7.85;64.57;100145.20;1652070;86;20907;-80
2022/10/19 02:53:17;;;;;;;9.78;5.12;;;;;;;7.84;64.69;100145.67;1652878;86;20998;-80
2022/10/19 02:55:47;;;;;;;12.15;5.40;;;;;;;7.83;64.81;100151.88;1652809;86;21043;-81
2022/10/19 02:58:13;;;;;;;12.03;4.80;;;;;;;7.85;64.94;100135.52;1653053;86;21053;-80
2022/10/19 03:00:40;;;;;;;6.67;4.62;;;;;;;7.85;64.98;100140.77;1653002;86;22091;-80
2022/10/19 03:03:06;;;;;;;9.28;5.20;;;;;;;7.86;65.07;100128.47;1652855;86;20982;-81
2022/10/19 03:05:33;;;;;;;7.40;4.97;;;;;;;7.84;65.15;100122.01;1651888;86;21039;-80
2022/10/19 03:07:59;;;;;;;7.22;4.80;;;;;;;7.85;65.21;100112.33;1658941;85;21014;-81
2022/10/19 03:10:25;;;;;;;9.08;5.28;;;;;;;7.83;65.24;100115.07;1680661;85;20995;-81
2022/10/19 03:12:52;;;;;;;10.98;4.85;;;;;;;7.82;65.36;100110.77;1680348;85;22339;-81
2022/10/19 03:15:23;;;;;;;9.45;4.65;;;;;;;7.80;65.40;100100.81;1680329;85;21073;-81
2022/10/19 03:17:54;;;;;;;10.35;4.60;;;;;;;7.81;65.53;100106.91;1680332;85;21110;-81
2022/10/19 03:20:21;;;;;;;7.40;4.75;;;;;;;7.80;65.58;100105.23;1654669;85;21035;-80
2022/10/19 03:22:49;;;;;;;11.48;4.75;;;;;;;7.79;65.64;100097.82;1636020;86;21065;-82
2022/10/19 03:25:15;;;;;;;9.80;5.20;;;;;;;7.79;65.69;100091.73;1595300;89;22309;-81
2022/10/19 03:27:42;;;;;;;6.90;4.65;;;;;;;7.77;65.81;100089.21;1568939;90;21514;-81
2022/10/19 03:30:10;;;;;;;9.73;5.12;;;;;;;7.78;65.85;100092.20;1595189;89;21403;-81
2022/10/19 03:32:38;;;;;;;8.88;5.08;;;;;;;7.77;65.90;100083.95;1582532;89;21432;-80
2022/10/19 03:35:06;;;;;;;8.63;5.15;;;;;;;7.78;65.93;100075.59;1586564;89;21547;-81
2022/10/19 03:37:34;;;;;;;7.60;4.75;;;;;;;7.77;66.02;100076.55;1604606;89;22051;-80
2022/10/19 03:40:01;;;;;;;11.45;5.25;;;;;;;7.76;66.08;100079.65;1599545;89;21048;-81
2022/10/19 03:42:28;;;;;;;8.28;5.08;;;;;;;7.77;66.11;100071.28;1582419;89;21029;-81
2022/10/19 03:44:55;;;;;;;10.48;5.03;;;;;;;7.77;66.16;100070.81;1582381;90;21021;-81
2022/10/19 03:47:22;;;;;;;6.72;4.72;;;;;;;7.74;66.18;100068.41;1582329;90;21072;-81
2022/10/19 03:49:50;;;;;;;7.15;4.83;;;;;;;7.77;66.23;100063.39;1582266;90;21970;-81
2022/10/19 03:52:17;;;;;;;8.65;5.00;;;;;;;7.76;66.28;100066.50;1582451;90;21005;-81
2022/10/19 03:54:46;;;;;;;9.50;4.75;;;;;;;7.76;66.32;100066.50;1582291;90;21053;-79
2022/10/19 03:57:13;;;;;;;9.40;5.25;;;;;;;7.77;66.33;100060.29;1583054;89;21068;-81
2022/10/19 03:59:40;;;;;;;11.15;5.33;;;;;;;7.77;66.41;100056.83;1582338;90;21663;-80
2022/10/19 04:02:07;;;;;;;12.20;4.85;;;;;;;7.77;66.46;100054.20;1582317;90;22278;-81
2022/10/19 04:04:33;;;;;;;10.43;5.20;;;;;;;7.77;66.48;100046.31;1585079;89;21041;-81
2022/10/19 04:07:00;;;;;;;7.75;4.87;;;;;;;7.76;66.53;100041.53;1604067;87;21080;-81
2022/10/19 04:09:27;;;;;;;9.83;5.00;;;;;;;7.77;66.57;100038.42;1604604;89;21555;-81
2022/10/19 04:11:53;;;;;;;9.03;4.70;;;;;;;7.74;66.63;100039.02;1604613;89;21021;-81
2022/10/19 04:14:21;;;;;;;10.00;5.22;;;;;;;7.75;66.69;100033.28;1596844;89;21911;-81
2022/10/19 04:16:48;;;;;;;8.75;4.90;;;;;;;7.73;66.72;100025.98;1582189;90;21462;-82
2022/10/19 04:19:15;;;;;;;9.13;5.25;;;;;;;7.72;66.75;100021.66;1582509;90;21057;-81
2022/10/19 04:21:43;;;;;;;7.75;5.10;;;;;;;7.69;66.85;100017.95;1584898;90;21008;-81
2022/10/19 04:24:12;;;;;;;9.08;5.40;;;;;;;7.67;66.94;100009.34;1601761;89;21031;-81
2022/10/19 04:26:50;;;;;;;8.78;4.83;;;;;;;7.65;67.04;100000.73;1575804;91;21944;-81
2022/10/19 04:29:19;;;;;;;8.38;5.12;;;;;;;7.62;67.13;99995.20;1601901;88;21454;-81
2022/10/19 04:31:48;;;;;;;7.83;4.92;;;;;;;7.61;67.23;99994.00;1576575;89;21047;-82
2022/10/19 04:34:15;;;;;;;10.32;5.42;;;;;;;7.60;67.36;99993.16;1626194;87;21025;-81
2022/10/19 04:36:43;;;;;;;13.35;5.62;;;;;;;7.62;67.43;100006.19;1637008;86;21495;-81
2022/10/19 04:39:09;;;;;;;14.53;5.15;;;;;;;7.61;67.54;99996.16;1635765;86;21860;-80
2022/10/19 04:41:37;;;;;;;8.13;4.90;;;;;;;7.61;67.67;100009.77;1636113;86;20964;-81
2022/10/19 04:44:05;;;;;;;12.15;5.60;;;;;;;7.59;67.83;100000.69;1635850;86;21029;-82
2022/10/19 04:46:32;;;;;;;9.53;5.28;;;;;;;7.58;67.95;100001.64;1635735;86;21492;-82
2022/10/19 04:49:00;;;;;;;9.85;5.47;;;;;;;7.56;68.02;99999.61;1604383;88;21147;-82
2022/10/19 04:51:26;;;;;;;7.92;5.00;;;;;;;7.57;68.10;99991.25;1617235;88;22338;-82
2022/10/19 04:53:55;;;;;;;10.72;5.65;;;;;;;7.57;68.12;99988.63;1617176;88;21512;-81
2022/10/19 04:56:25;;;;;;;7.62;5.10;;;;;;;7.59;68.19;99994.59;1602423;89;21019;-82
2022/10/19 04:58:56;;;;;;;11.43;5.30;;;;;;;7.60;68.24;99991.85;1616945;88;21001;-81
2022/10/19 05:01:25;;;;;;;9.55;6.03;;;;;;;7.60;68.28;99981.34;1602281;88;21569;-80
2022/10/19 05:03:55;;;;;;;8.35;5.92;;;;;;;7.62;68.30;99988.63;1616875;88;21954;-80
2022/10/19 05:06:23;;;;;;;8.63;4.80;;;;;;;7.66;68.34;99984.01;1605251;86;21035;-80
2022/10/19 05:08:49;;;;;;;12.15;5.60;;;;;;;7.68;68.40;99981.62;1575455;91;21542;-81
2022/10/19 05:11:16;;;;;;;10.35;5.58;;;;;;;7.75;68.43;99992.53;1601918;88;21007;-81
2022/10/19 05:13:44;;;;;;;12.07;6.00;;;;;;;7.82;68.41;99987.19;1575501;91;21024;-81
2022/10/19 05:16:14;;;;;;;8.65;5.65;;;;;;;7.90;68.42;99982.66;1617269;88;21852;-80
2022/10/19 05:18:40;;;;;;;15.38;5.87;;;;;;;8.00;68.44;99986.27;1602339;88;20948;-79
2022/10/19 05:21:11;;;;;;;13.80;6.30;;;;;;;8.11;68.36;99971.86;1575517;90;21402;-79
2022/10/19 05:23:38;;;;;;;9.70;5.45;;;;;;;8.24;68.20;99980.97;1597931;88;21038;-80
2022/10/19 05:26:13;;;;;;;11.22;6.30;;;;;;;8.36;68.09;99973.48;1596705;89;21078;-79
2022/10/19 05:28:41;;;;;;;8.68;5.30;;;;;;;8.51;67.94;99972.80;1596518;89;21938;-79
2022/10/19 05:31:13;;;;;;;8.23;5.22;;;;;;;8.66;67.82;99970.27;1603431;87;20979;-79
2022/10/19 05:33:40;;;;;;;9.25;5.60;;;;;;;8.80;67.44;99975.31;1614370;86;20986;-79
2022/10/19 05:36:25;;;;;;;11.18;5.67;;;;;;;8.94;67.13;99956.27;1616258;86;20994;-79
2022/10/19 05:38:55;;;;;;;13.30;6.00;;;;;;;9.04;66.80;99964.63;1615282;87;21002;-78
2022/10/19 05:41:23;;;;;;;8.65;5.37;;;;;;;9.12;66.40;99964.02;1596246;89;22572;-76
2022/10/19 05:43:56;;;;;;;9.90;5.50;;;;;;;9.16;66.12;99958.85;1596752;89;21118;-76
2022/10/19 05:46:24;;;;;;;9.55;5.42;;;;;;;9.18;65.94;99963.06;1596790;89;29129;-78
2022/10/19 05:48:50;;;;;;;9.13;5.50;;;;;;;9.21;65.72;99965.92;1596820;89;21031;-80
2022/10/19 05:51:19;;;;;;;11.38;5.22;;;;;;;9.22;65.53;99964.96;1596615;89;21015;-79
2022/10/19 05:53:45;;;;;;;8.78;5.28;;;;;;;9.23;65.37;99967.95;1596663;89;22575;-80
2022/10/19 05:56:19;;;;;;;10.32;5.47;;;;;;;9.25;65.32;99966.50;1597577;88;20963;-83
2022/10/19 05:58:46;;;;;;;10.50;5.50;;;;;;;9.26;65.30;99972.13;1597874;89;21011;-81
2022/10/19 06:01:15;;;;;;;11.88;5.75;;;;;;;9.28;65.23;99960.53;1586261;88;21029;-79
2022/10/19 06:03:42;;;;;;;12.15;5.53;;;;;;;9.32;65.21;99956.67;1618874;88;21591;-80
2022/10/19 06:06:10;;;;;;;15.13;6.08;;;;;;;9.34;65.17;99950.78;1619086;88;21973;-80
2022/10/19 06:08:37;;;;;;;8.25;5.20;;;;;;;9.41;65.16;99942.75;1618926;88;21037;-80
2022/10/19 06:11:08;;;;;;;12.03;5.67;;;;;;;9.48;65.06;99944.41;1618593;88;21065;-80
2022/10/19 06:13:36;;;;;;;11.68;5.80;;;;;;;9.58;64.98;99946.65;1588964;86;21088;-77
2022/10/19 06:16:05;;;;;;;12.35;5.95;;;;;;;9.68;64.85;99937.50;1598939;88;21068;-78
2022/10/19 06:18:33;;;;;;;10.98;5.87;;;;;;;9.81;64.76;99944.73;1619259;88;21998;-78
2022/10/19 06:21:05;;;;;;;12.78;5.70;;;;;;;9.97;64.44;99950.42;1619027;88;21067;-78
2022/10/19 06:23:33;;;;;;;13.62;6.40;;;;;;;10.16;63.97;99950.20;1629794;87;21072;-78
2022/10/19 06:26:05;;;;;;;11.10;5.87;;;;;;;10.29;63.59;99949.53;1630777;88;21001;-79
2022/10/19 06:28:35;;;;;;;10.35;6.35;;;;;;;10.43;63.02;99955.81;1630796;88;21470;-79
2022/10/19 06:31:01;;;;;;;13.08;6.78;;;;;;;10.57;62.47;99959.41;1625800;87;21982;-78
2022/10/19 06:33:31;;;;;;;10.05;6.17;;;;;;;10.69;62.31;99952.23;1630896;87;20977;-79
2022/10/19 06:36:12;;;;;;;15.15;6.70;;;;;;;10.85;61.79;99953.06;1657197;86;21018;-78
2022/10/19 06:38:39;;;;;;;14.87;6.72;;;;;;;11.01;61.44;99953.89;1672295;85;22337;-78
2022/10/19 06:41:06;;;;;;;11.55;6.50;;;;;;;11.15;60.65;99958.78;1684899;85;20991;-78
2022/10/19 06:43:36;;;;;;;13.25;6.85;;;;;;;11.28;60.47;99953.23;1684852;84;21929;-78
2022/10/19 06:46:16;;;;;;;10.45;7.00;;;;;;;11.43;60.15;99957.17;1679929;85;21033;-79
2022/10/19 06:48:42;;;;;;;9.93;6.47;;;;;;;11.61;59.99;99956.01;1667627;85;21418;-79
2022/10/19 06:51:09;;;;;;;12.43;5.72;;;;;;;11.80;59.39;99962.66;1684833;85;21429;-79
2022/10/19 06:53:36;;;;;;;14.50;6.60;;;;;;;11.96;58.87;99957.61;1683105;85;20994;-79
2022/10/19 06:56:05;;;;;;;11.83;6.15;;;;;;;12.11;58.44;99953.22;1684803;85;21849;-80
2022/10/19 06:58:37;;;;;;;10.60;6.50;;;;;;;12.24;58.12;99957.72;1684972;85;21344;-81
2022/10/19 07:01:08;;;;;;;12.37;7.63;;;;;;;12.38;57.99;99961.74;1684829;85;21046;-84
2022/10/19 07:03:35;;;;;;;13.05;7.55;;;;;;;12.53;57.65;99956.31;1681581;85;21027;-80
2022/10/19 07:06:06;;;;;;;15.35;6.92;;;;;;;12.72;57.46;99944.81;1610292;89;21059;-80
2022/10/19 07:08:33;;;;;;;12.85;7.95;;;;;;;12.90;57.29;99944.38;1609840;88;21984;-78
2022/10/19 07:11:05;;;;;;;15.40;8.35;;;;;;;13.09;56.55;99944.77;1610261;88;21071;-79
2022/10/19 07:13:32;;;;;;;13.32;8.35;;;;;;;13.22;56.53;99943.98;1604426;89;21048;-79
2022/10/19 07:16:04;;;;;;;12.58;8.10;;;;;;;13.37;56.10;99948.27;1616028;87;38376;-79
2022/10/19 07:18:31;;;;;;;11.48;7.28;;;;;;;13.50;55.89;99947.89;1630860;88;21072;-79
2022/10/19 07:21:01;;;;;;;14.93;7.92;;;;;;;13.61;55.82;99946.36;1625836;88;21939;-85
2022/10/19 07:23:29;;;;;;;17.60;8.18;;;;;;;13.69;55.64;99947.73;1600482;88;21007;-81
2022/10/19 07:26:02;;;;;;;21.35;10.20;;;;;;;13.77;55.36;99942.50;1596469;89;21015;-80
2022/10/19 07:28:25;;;;;;;11.53;7.65;;;;;;;13.82;55.31;99944.22;1596268;89;21091;-81
2022/10/19 07:30:52;;;;;;;14.95;8.80;;;;;;;13.84;55.16;99945.39;1597198;89;21572;-81
2022/10/19 07:33:18;;;;;;;13.60;8.33;;;;;;;13.83;55.36;99940.58;1596600;89;21975;-80
2022/10/19 07:35:47;;;;;;;16.25;8.75;;;;;;;13.86;55.23;99937.61;1619406;88;21362;-79
2022/10/19 07:38:13;;;;;;;13.70;8.55;;;;;;;13.85;55.17;99934.62;1621364;87;21585;-80
2022/10/19 07:40:40;;;;;;;15.60;8.95;;;;;;;13.87;55.40;99944.58;1619951;88;20994;-80
2022/10/19 07:43:06;;;;;;;16.00;9.10;;;;;;;13.88;55.51;99954.20;1618981;86;20976;-79
2022/10/19 07:45:34;;;;;;;13.68;8.25;;;;;;;13.89;55.46;99952.39;1618833;88;21854;-79
2022/10/19 07:48:00;;;;;;;13.68;8.83;;;;;;;13.84;55.27;99961.32;1618871;88;21200;-77
2022/10/19 07:50:29;;;;;;;18.55;10.20;;;;;;;13.75;55.51;99959.92;1618967;87;20990;-80
2022/10/19 07:52:55;;;;;;;33.65;13.55;;;;;;;13.70;55.67;99963.54;1618842;88;21026;-80
2022/10/19 07:55:22;;;;;;;19.80;11.63;;;;;;;13.68;55.75;99971.28;1609428;88;21094;-81
2022/10/19 07:57:49;;;;;;;21.97;10.03;;;;;;;13.57;55.76;99963.55;1596599;89;21904;-80
2022/10/19 08:00:16;;;;;;;15.70;8.95;;;;;;;13.43;55.95;99972.88;1596625;89;21087;-80
2022/10/19 08:02:43;;;;;;;24.25;12.18;;;;;;;13.32;56.43;99969.95;1596568;89;21121;-78
2022/10/19 08:05:10;;;;;;;16.62;9.70;;;;;;;13.23;56.88;99970.01;1616523;88;21002;-77
2022/10/19 08:07:38;;;;;;;18.82;11.50;;;;;;;13.13;57.29;99958.93;1619553;87;20966;-78
2022/10/19 08:10:05;;;;;;;20.43;10.10;;;;;;;13.08;57.48;99951.89;1619130;88;21926;-80
2022/10/19 08:12:36;;;;;;;32.78;11.73;;;;;;;13.07;57.74;99951.55;1616317;86;21581;-78
2022/10/19 08:15:07;;;;;;;23.18;10.75;;;;;;;13.05;57.95;99949.55;1619413;87;21048;-77
2022/10/19 08:17:37;;;;;;;23.52;13.13;;;;;;;13.01;58.17;99949.98;1617098;88;21507;-78
2022/10/19 08:20:05;;;;;;;27.35;15.35;;;;;;;12.98;58.52;99939.19;1618823;88;21048;-83
2022/10/19 08:22:32;;;;;;;24.50;15.03;;;;;;;12.94;58.87;99947.10;1621202;87;21954;-80
2022/10/19 08:24:59;;;;;;;20.97;12.07;;;;;;;12.91;59.29;99946.05;1628897;87;21494;-80
2022/10/19 08:27:27;;;;;;;23.65;13.13;;;;;;;12.86;59.77;99966.88;1682345;85;20994;-78
2022/10/19 08:29:54;;;;;;;24.02;11.68;;;;;;;12.78;60.17;99967.60;1650621;85;21607;-79
2022/10/19 08:32:21;;;;;;;32.88;17.73;;;;;;;12.73;60.68;99965.03;1610152;89;21124;-79
2022/10/19 08:34:49;;;;;;;38.35;18.62;;;;;;;12.65;61.38;99965.78;1645849;86;21876;-82
2022/10/19 08:37:16;;;;;;;35.75;17.32;;;;;;;12.55;61.86;99971.11;1656909;86;20992;-81
2022/10/19 08:39:43;;;;;;;28.15;16.07;;;;;;;12.50;62.56;99968.53;1656075;86;21074;-80
2022/10/19 08:42:16;;;;;;;42.90;23.05;;;;;;;12.42;63.01;99970.57;1639271;86;21069;-80
2022/10/19 08:45:13;;;;;;;37.55;19.42;;;;;;;12.36;63.42;99969.00;1656667;86;21057;-79
2022/10/19 08:48:15;;;;;;;33.30;20.37;;;;;;;12.32;63.74;99975.05;1634816;87;22042;-78
2022/10/19 08:50:43;;;;;;;35.45;18.52;;;;;;;12.31;64.32;99977.36;1656229;86;21073;-79
2022/10/19 08:53:15;;;;;;;29.37;17.27;;;;;;;12.24;64.74;99973.61;1663043;85;21027;-79
2022/10/19 08:56:02;;;;;;;22.40;14.07;;;;;;;12.19;64.90;99968.75;1683260;85;21560;-80
2022/10/19 08:59:04;;;;;;;28.87;16.52;;;;;;;12.20;65.08;99966.45;1684590;85;21409;-80
2022/10/19 09:02:03;;;;;;;23.83;15.43;;;;;;;12.23;65.38;99969.28;1684883;85;21927;-79
2022/10/19 09:04:43;;;;;;;18.95;12.65;;;;;;;12.25;65.54;99968.65;1655137;85;20998;-79
2022/10/19 09:07:31;;;;;;;21.70;14.13;;;;;;;12.21;65.67;99972.58;1663256;85;21440;-80
2022/10/19 09:10:18;;;;;;;23.00;14.65;;;;;;;12.19;65.89;99966.59;1627711;86;20990;-80
2022/10/19 09:12:53;;;;;;;22.02;14.93;;;;;;;12.19;66.15;99969.23;1599735;89;20977;-79
2022/10/19 09:15:40;;;;;;;23.90;16.52;;;;;;;12.20;66.39;99964.29;1599859;89;21849;-80
2022/10/19 09:18:23;;;;;;;23.55;16.32;;;;;;;12.21;66.54;99976.55;1645096;87;21032;-80
2022/10/19 09:21:07;;;;;;;23.02;15.38;;;;;;;12.19;67.02;99966.59;1635048;86;21047;-79
2022/10/19 09:24:03;;;;;;;20.80;14.10;;;;;;;12.14;67.33;99980.73;1613426;88;21032;-79
2022/10/19 09:26:42;;;;;;;51.95;16.57;;;;;;;12.11;67.68;99980.53;1618807;88;21057;-81
2022/10/19 09:29:17;;;;;;;36.53;20.60;;;;;;;12.07;68.13;99980.97;1612734;88;21850;-81
2022/10/19 09:31:44;;;;;;;35.78;25.90;;;;;;;12.06;68.56;99980.59;1618839;88;21534;-81
2022/10/19 09:34:45;;;;;;;25.45;18.02;;;;;;;12.06;69.05;99993.34;1619871;88;21099;-79
2022/10/19 09:37:13;;;;;;;22.70;16.15;;;;;;;11.99;69.47;100000.19;1609855;88;21512;-78
2022/10/19 09:39:39;;;;;;;21.33;14.87;;;;;;;11.97;69.87;100002.15;1610878;88;20998;-79
2022/10/19 09:42:21;;;;;;;18.67;13.50;;;;;;;11.95;70.25;100001.42;1649118;86;22024;-77
2022/10/19 09:44:49;;;;;;;21.33;15.53;;;;;;;11.93;70.70;99998.09;1625200;87;21087;-78
2022/10/19 09:47:37;;;;;;;22.00;15.00;;;;;;;11.90;70.99;99991.27;1644994;86;20973;-82
2022/10/19 09:50:15;;;;;;;24.32;14.20;;;;;;;11.88;71.32;99990.59;1649697;86;21017;-78
2022/10/19 09:52:44;;;;;;;22.15;14.30;;;;;;;11.88;71.71;99984.45;1647707;86;21064;-78
2022/10/19 09:55:20;;;;;;;24.07;15.78;;;;;;;11.90;72.08;99987.80;1611136;86;21909;-78
2022/10/19 09:57:50;;;;;;;20.00;14.63;;;;;;;11.92;72.44;99987.99;1596737;89;21003;-79
2022/10/19 10:00:23;;;;;;;21.97;15.72;;;;;;;11.91;72.90;99988.14;1577727;90;21011;-78
2022/10/19 10:02:51;;;;;;;19.90;15.90;;;;;;;11.90;73.08;99984.66;1597344;89;21031;-79
2022/10/19 10:05:19;;;;;;;21.50;15.45;;;;;;;11.95;73.36;99989.52;1596836;88;21245;-79
2022/10/19 10:07:47;;;;;;;21.90;15.48;;;;;;;11.97;73.67;99989.75;1596689;89;21978;-78
2022/10/19 10:10:22;;;;;;;20.37;15.25;;;;;;;12.01;73.83;99995.09;1596885;89;21046;-78
2022/10/19 10:12:50;;;;;;;21.17;15.23;;;;;;;12.06;74.03;99995.15;1621471;88;21047;-78
2022/10/19 10:15:23;;;;;;;22.45;15.50;;;;;;;12.08;74.15;99992.73;1599595;88;20999;-79
2022/10/19 10:17:50;;;;;;;22.60;15.85;;;;;;;12.10;74.23;99994.75;1619296;88;21100;-79
2022/10/19 10:20:27;;;;;;;22.40;15.68;;;;;;;12.15;74.30;99984.55;1618811;88;22917;-79
2022/10/19 10:23:01;;;;;;;21.42;16.52;;;;;;;12.17;74.40;99980.47;1619464;88;21447;-78
2022/10/19 10:25:33;;;;;;;23.27;17.25;;;;;;;12.21;74.54;99980.52;1619244;88;20981;-79
2022/10/19 10:28:19;;;;;;;25.32;16.55;;;;;;;12.24;74.67;99978.90;1614144;88;21510;-79
2022/10/19 10:30:46;;;;;;;22.65;15.10;;;;;;;12.25;74.72;99980.56;1596941;89;21546;-78
2022/10/19 10:33:18;;;;;;;28.38;17.48;;;;;;;12.25;74.86;99980.56;1596658;89;21955;-78
2022/10/19 10:35:52;;;;;;;24.98;17.57;;;;;;;12.24;74.95;99983.70;1621417;88;21047;-79
2022/10/19 10:38:19;;;;;;;20.60;15.63;;;;;;;12.20;75.13;99982.82;1602608;88;21052;-77
2022/10/19 10:41:03;;;;;;;21.85;15.00;;;;;;;12.22;75.23;99983.51;1622536;87;21023;-77
2022/10/19 10:43:32;;;;;;;;;;;;;;;12.22;75.20;99972.42;1622064;87;20982;-77
2022/10/19 10:46:06;;;;;;;23.77;16.65;;;;;;;12.23;75.34;99969.28;1605403;88;21882;-78
2022/10/19 10:48:37;;;;;;;19.55;14.83;;;;;;;12.17;75.35;99973.36;1597102;89;21063;-78
2022/10/19 10:51:20;;;;;;;23.25;16.12;;;;;;;12.17;75.41;99964.09;1610762;86;21009;-78
2022/10/19 10:53:47;;;;;;;23.70;16.73;;;;;;;12.18;75.50;99958.30;1617110;88;20997;-77
2022/10/19 10:56:28;;;;;;;19.95;15.20;;;;;;;12.18;75.57;99961.78;1619277;87;21045;-78
2022/10/19 10:59:13;;;;;;;19.10;14.45;;;;;;;12.20;75.69;99964.29;1617793;87;22107;-78
2022/10/19 11:01:43;;;;;;;;;;;;;;;12.21;75.79;99964.14;1619591;87;20966;-78
2022/10/19 11:04:16;;;;;;;21.77;15.00;;;;;;;12.23;75.81;99963.99;1597451;89;20236;-78
2022/10/19 11:06:49;;;;;;;21.97;14.20;;;;;;;12.23;75.83;99963.99;1596121;89;21514;-78
2022/10/19 11:09:32;;;;;;;22.77;15.72;;;;;;;12.23;75.89;99965.31;1596913;89;20999;-78
2022/10/19 11:12:02;;;;;;;27.10;16.62;;;;;;;12.23;75.83;99966.64;1596909;89;22622;-77
2022/10/19 11:14:46;;;;;;;21.07;13.88;;;;;;;12.21;75.88;99967.28;1596892;89;21040;-78
2022/10/19 11:17:19;;;;;;;;;;;;;;;12.20;75.88;99968.26;1599052;89;21067;-78
2022/10/19 11:19:50;;;;;;;22.65;16.67;;;;;;;12.19;75.97;99969.23;1597659;88;20167;-78
2022/10/19 11:22:45;;;;;;;17.62;13.58;;;;;;;12.17;76.00;99955.31;1596646;89;21055;-78
2022/10/19 11:25:30;;;;;;;20.27;14.63;;;;;;;12.18;76.02;99958.30;1568405;90;21830;-79
2022/10/19 11:28:38;;;;;;;22.05;13.72;;;;;;;12.17;76.01;99961.94;1596501;87;21462;-78
2022/10/19 11:31:22;;;;;;;18.48;13.88;;;;;;;12.16;76.07;99968.18;1569164;90;21598;-78
2022/10/19 11:33:54;;;;;;;20.57;13.60;;;;;;;12.12;76.13;99969.45;1577606;87;21064;-77
2022/10/19 11:36:57;;;;;;;18.42;12.98;;;;;;;12.12;76.15;99962.83;1595443;89;21011;-78
2022/10/19 11:39:50;;;;;;;19.17;13.35;;;;;;;12.13;76.25;99957.39;1604657;89;22587;-78
2022/10/19 11:42:54;;;;;;;21.52;15.85;;;;;;;12.12;76.30;99946.45;1604624;89;20988;-78
2022/10/19 11:45:38;;;;;;;19.85;15.83;;;;;;;12.12;76.50;99941.16;1605008;89;20988;-78
2022/10/19 11:48:58;;;;;;;18.45;14.15;;;;;;;12.12;76.50;99941.16;1603326;89;21033;-77
2022/10/19 11:52:03;;;;;;;17.82;13.50;;;;;;;12.15;76.75;99926.80;1604834;88;21069;-77